sensor_id;sensor_type;location;lat;lon;timestamp;pressure;altitude;pressure_sealevel;temperature;humidity
15880;BME280;61999;51.514;14.614;2023-05-08T00:02:17;101011.78;;;2.36;49.97
15880;BME280;61999;51.514;14.614;2023-05-08T00:04:45;101011.72;;;2.38;49.76
15880;BME280;61999;51.514;14.614;2023-05-08T00:07:13;101008.19;;;2.40;49.63
15880;BME280;61999;51.514;14.614;2023-05-08T00:09:41;101010.06;;;2.35;49.79
15880;BME280;61999;51.514;14.614;2023-05-08T00:12:09;101015.25;;;2.35;49.55
15880;BME280;61999;51.514;14.614;2023-05-08T00:14:37;101014.31;;;2.38;49.63
15880;BME280;61999;51.514;14.614;2023-05-08T00:17:05;101017.19;;;2.29;50.09
15880;BME280;61999;51.514;14.614;2023-05-08T00:19:34;101010.91;;;2.36;49.54
15880;BME280;61999;51.514;14.614;2023-05-08T00:22:02;101018.78;;;2.34;49.57
15880;BME280;61999;51.514;14.614;2023-05-08T00:24:30;101017.88;;;2.35;49.29
15880;BME280;61999;51.514;14.614;2023-05-08T00:26:58;101019.72;;;2.32;49.30
15880;BME280;61999;51.514;14.614;2023-05-08T00:29:26;101017.16;;;2.30;49.26
15880;BME280;61999;51.514;14.614;2023-05-08T00:31:54;101008.56;;;2.28;49.29
15880;BME280;61999;51.514;14.614;2023-05-08T00:34:22;101012.22;;;2.21;49.56
15880;BME280;61999;51.514;14.614;2023-05-08T00:36:52;101010.44;;;2.23;49.18
15880;BME280;61999;51.514;14.614;2023-05-08T00:39:20;101020.88;;;2.22;49.41
15880;BME280;61999;51.514;14.614;2023-05-08T00:41:48;101029.66;;;2.17;49.38
15880;BME280;61999;51.514;14.614;2023-05-08T00:44:16;101026.31;;;2.14;49.22
15880;BME280;61999;51.514;14.614;2023-05-08T00:46:45;101031.59;;;2.11;48.79
15880;BME280;61999;51.514;14.614;2023-05-08T00:49:13;101031.78;;;2.05;49.07
15880;BME280;61999;51.514;14.614;2023-05-08T00:51:44;101024.09;;;2.00;49.22
15880;BME280;61999;51.514;14.614;2023-05-08T00:54:15;101028.63;;;1.93;49.00
15880;BME280;61999;51.514;14.614;2023-05-08T00:56:44;101032.25;;;1.88;49.21
15880;BME280;61999;51.514;14.614;2023-05-08T00:59:14;101031.41;;;1.84;49.09
15880;BME280;61999;51.514;14.614;2023-05-08T01:01:44;101033.31;;;1.79;49.35
15880;BME280;61999;51.514;14.614;2023-05-08T01:04:13;101034.25;;;1.75;49.16
15880;BME280;61999;51.514;14.614;2023-05-08T01:06:42;101037.84;;;1.71;49.24
15880;BME280;61999;51.514;14.614;2023-05-08T01:09:09;101034.50;;;1.66;49.29
15880;BME280;61999;51.514;14.614;2023-05-08T01:11:46;101041.56;;;1.61;49.21
15880;BME280;61999;51.514;14.614;2023-05-08T01:14:23;101041.75;;;1.55;49.45
15880;BME280;61999;51.514;14.614;2023-05-08T01:17:13;101044.44;;;1.50;49.54
15880;BME280;61999;51.514;14.614;2023-05-08T01:20:08;101048.94;;;1.43;49.57
15880;BME280;61999;51.514;14.614;2023-05-08T01:23:17;101042.22;;;1.36;49.78
15880;BME280;61999;51.514;14.614;2023-05-08T01:26:19;101037.16;;;1.30;49.77
15880;BME280;61999;51.514;14.614;2023-05-08T01:29:33;101039.09;;;1.22;50.15
15880;BME280;61999;51.514;14.614;2023-05-08T01:32:16;101042.63;;;1.19;49.66
15880;BME280;61999;51.514;14.614;2023-05-08T01:34:56;101037.44;;;1.18;49.66
15880;BME280;61999;51.514;14.614;2023-05-08T01:37:31;101046.22;;;1.14;49.99
15880;BME280;61999;51.514;14.614;2023-05-08T01:40:11;101045.41;;;1.10;50.09
15880;BME280;61999;51.514;14.614;2023-05-08T01:42:52;101041.19;;;1.08;50.10
15880;BME280;61999;51.514;14.614;2023-05-08T01:45:30;101029.13;;;1.05;49.95
15880;BME280;61999;51.514;14.614;2023-05-08T01:48:04;101031.78;;;1.02;50.17
15880;BME280;61999;51.514;14.614;2023-05-08T01:50:39;101030.13;;;0.99;50.56
15880;BME280;61999;51.514;14.614;2023-05-08T01:53:20;101039.69;;;0.97;50.43
15880;BME280;61999;51.514;14.614;2023-05-08T01:55:57;101033.66;;;0.95;50.55
15880;BME280;61999;51.514;14.614;2023-05-08T01:58:27;101035.53;;;0.90;51.41
15880;BME280;61999;51.514;14.614;2023-05-08T02:01:00;101032.94;;;0.90;50.82
15880;BME280;61999;51.514;14.614;2023-05-08T02:03:33;101039.03;;;0.88;51.28
15880;BME280;61999;51.514;14.614;2023-05-08T02:06:03;101033.03;;;0.86;51.67
15880;BME280;61999;51.514;14.614;2023-05-08T02:08:33;101025.25;;;0.84;52.00
15880;BME280;61999;51.514;14.614;2023-05-08T02:11:04;101027.09;;;0.80;51.96
15880;BME280;61999;51.514;14.614;2023-05-08T02:13:34;101025.47;;;0.75;53.11
15880;BME280;61999;51.514;14.614;2023-05-08T02:16:07;101022.97;;;0.72;53.21
15880;BME280;61999;51.514;14.614;2023-05-08T02:18:41;101025.59;;;0.70;53.05
15880;BME280;61999;51.514;14.614;2023-05-08T02:21:13;101023.16;;;0.63;53.79
15880;BME280;61999;51.514;14.614;2023-05-08T02:23:44;101027.47;;;0.64;54.54
15880;BME280;61999;51.514;14.614;2023-05-08T02:26:14;101026.59;;;0.63;53.70
15880;BME280;61999;51.514;14.614;2023-05-08T02:28:43;101032.69;;;0.62;54.33
15880;BME280;61999;51.514;14.614;2023-05-08T02:31:13;101019.81;;;0.57;55.01
15880;BME280;61999;51.514;14.614;2023-05-08T02:33:43;101025.91;;;0.55;54.80
15880;BME280;61999;51.514;14.614;2023-05-08T02:36:17;101024.38;;;0.48;55.87
15880;BME280;61999;51.514;14.614;2023-05-08T02:38:50;101028.56;;;0.53;55.19
15880;BME280;61999;51.514;14.614;2023-05-08T02:41:22;101028.44;;;0.59;54.24
15880;BME280;61999;51.514;14.614;2023-05-08T02:43:53;101025.91;;;0.56;54.41
15880;BME280;61999;51.514;14.614;2023-05-08T02:46:31;101028.50;;;0.56;54.05
15880;BME280;61999;51.514;14.614;2023-05-08T02:49:10;101023.44;;;0.50;54.77
15880;BME280;61999;51.514;14.614;2023-05-08T02:51:49;101026.09;;;0.47;55.27
15880;BME280;61999;51.514;14.614;2023-05-08T02:54:29;101032.28;;;0.40;55.57
15880;BME280;61999;51.514;14.614;2023-05-08T02:57:07;101031.47;;;0.38;56.25
15880;BME280;61999;51.514;14.614;2023-05-08T02:59:44;101030.63;;;0.37;55.81
15880;BME280;61999;51.514;14.614;2023-05-08T03:02:16;101034.97;;;0.37;55.41
15880;BME280;61999;51.514;14.614;2023-05-08T03:04:50;101034.19;;;0.32;56.15
15880;BME280;61999;51.514;14.614;2023-05-08T03:07:24;101033.66;;;0.14;57.25
15880;BME280;61999;51.514;14.614;2023-05-08T03:10:01;101037.16;;;0.12;57.31
15880;BME280;61999;51.514;14.614;2023-05-08T03:12:38;101032.66;;;0.22;56.93
15880;BME280;61999;51.514;14.614;2023-05-08T03:15:16;101037.03;;;0.18;56.97
15880;BME280;61999;51.514;14.614;2023-05-08T03:17:47;101036.50;;;0.02;57.65
15880;BME280;61999;51.514;14.614;2023-05-08T03:20:22;101050.13;;;0.12;57.30
15880;BME280;61999;51.514;14.614;2023-05-08T03:22:53;101050.94;;;0.14;57.02
15880;BME280;61999;51.514;14.614;2023-05-08T03:25:23;101051.03;;;0.09;56.91
15880;BME280;61999;51.514;14.614;2023-05-08T03:27:52;101048.50;;;0.06;57.21
15880;BME280;61999;51.514;14.614;2023-05-08T03:30:22;101057.16;;;0.05;57.24
15880;BME280;61999;51.514;14.614;2023-05-08T03:32:53;101059.81;;;0.02;57.24
15880;BME280;61999;51.514;14.614;2023-05-08T03:35:27;101054.66;;;0.01;57.30
15880;BME280;61999;51.514;14.614;2023-05-08T03:37:55;101060.59;;;0.07;56.84
15880;BME280;61999;51.514;14.614;2023-05-08T03:40:23;101048.47;;;0.08;57.28
15880;BME280;61999;51.514;14.614;2023-05-08T03:42:52;101055.56;;;-0.02;57.37
15880;BME280;61999;51.514;14.614;2023-05-08T03:45:22;101059.88;;;-0.01;57.52
15880;BME280;61999;51.514;14.614;2023-05-08T03:47:50;101056.22;;;0.09;57.04
15880;BME280;61999;51.514;14.614;2023-05-08T03:50:21;101070.31;;;-0.05;57.39
15880;BME280;61999;51.514;14.614;2023-05-08T03:52:51;101075.28;;;0.07;56.94
15880;BME280;61999;51.514;14.614;2023-05-08T03:55:19;101070.06;;;0.08;57.36
15880;BME280;61999;51.514;14.614;2023-05-08T03:57:56;101067.53;;;0.05;57.67
15880;BME280;61999;51.514;14.614;2023-05-08T04:00:38;101064.19;;;0.00;58.35
15880;BME280;61999;51.514;14.614;2023-05-08T04:03:21;101066.75;;;0.02;57.55
15880;BME280;61999;51.514;14.614;2023-05-08T04:05:58;101069.22;;;0.08;57.51
15880;BME280;61999;51.514;14.614;2023-05-08T04:08:35;101077.19;;;-0.03;58.39
15880;BME280;61999;51.514;14.614;2023-05-08T04:11:17;101078.88;;;-0.00;58.04
15880;BME280;61999;51.514;14.614;2023-05-08T04:13:53;101076.31;;;-0.02;58.17
15880;BME280;61999;51.514;14.614;2023-05-08T04:16:26;101071.94;;;0.02;58.51
15880;BME280;61999;51.514;14.614;2023-05-08T04:19:01;101077.00;;;0.06;58.38
15880;BME280;61999;51.514;14.614;2023-05-08T04:21:33;101081.34;;;0.07;57.68
15880;BME280;61999;51.514;14.614;2023-05-08T04:24:06;101083.22;;;-0.01;59.15
15880;BME280;61999;51.514;14.614;2023-05-08T04:26:36;101085.66;;;0.07;58.46
15880;BME280;61999;51.514;14.614;2023-05-08T04:29:05;101082.00;;;0.17;58.18
15880;BME280;61999;51.514;14.614;2023-05-08T04:31:34;101088.34;;;0.02;58.69
15880;BME280;61999;51.514;14.614;2023-05-08T04:34:03;101084.91;;;0.00;59.18
15880;BME280;61999;51.514;14.614;2023-05-08T04:36:31;101096.19;;;-0.02;58.89
15880;BME280;61999;51.514;14.614;2023-05-08T04:38:59;101095.88;;;0.14;58.52
15880;BME280;61999;51.514;14.614;2023-05-08T04:41:28;101095.09;;;0.09;59.11
15880;BME280;61999;51.514;14.614;2023-05-08T04:43:56;101102.88;;;0.09;59.24
15880;BME280;61999;51.514;14.614;2023-05-08T04:46:25;101105.34;;;0.15;58.59
15880;BME280;61999;51.514;14.614;2023-05-08T04:48:53;101100.09;;;0.22;58.20
15880;BME280;61999;51.514;14.614;2023-05-08T04:51:21;101103.38;;;0.30;58.12
15880;BME280;61999;51.514;14.614;2023-05-08T04:53:48;101104.28;;;0.29;58.18
15880;BME280;61999;51.514;14.614;2023-05-08T04:56:16;101107.59;;;0.37;57.80
15880;BME280;61999;51.514;14.614;2023-05-08T04:58:46;101102.69;;;0.19;59.40
15880;BME280;61999;51.514;14.614;2023-05-08T05:01:14;101111.09;;;0.34;57.96
15880;BME280;61999;51.514;14.614;2023-05-08T05:03:42;101117.22;;;0.30;58.49
15880;BME280;61999;51.514;14.614;2023-05-08T05:06:10;101113.59;;;0.39;58.27
15880;BME280;61999;51.514;14.614;2023-05-08T05:08:38;101111.53;;;0.56;57.85
15880;BME280;61999;51.514;14.614;2023-05-08T05:11:05;101127.72;;;0.68;56.97
15880;BME280;61999;51.514;14.614;2023-05-08T05:13:33;101127.75;;;0.66;57.02
15880;BME280;61999;51.514;14.614;2023-05-08T05:16:03;101126.91;;;0.66;57.46
15880;BME280;61999;51.514;14.614;2023-05-08T05:18:31;101130.44;;;0.62;57.33
15880;BME280;61999;51.514;14.614;2023-05-08T05:20:59;101129.44;;;0.67;57.37
15880;BME280;61999;51.514;14.614;2023-05-08T05:23:27;101133.63;;;0.76;57.16
15880;BME280;61999;51.514;14.614;2023-05-08T05:25:55;101135.63;;;0.62;57.40
15880;BME280;61999;51.514;14.614;2023-05-08T05:28:23;101133.91;;;0.60;57.70
15880;BME280;61999;51.514;14.614;2023-05-08T05:30:51;101120.03;;;0.63;57.76
15880;BME280;61999;51.514;14.614;2023-05-08T05:33:21;101133.72;;;0.70;58.31
15880;BME280;61999;51.514;14.614;2023-05-08T05:35:49;101128.53;;;0.70;58.00
15880;BME280;61999;51.514;14.614;2023-05-08T05:38:17;101137.00;;;0.78;57.93
15880;BME280;61999;51.514;14.614;2023-05-08T05:40:45;101137.13;;;0.72;58.38
15880;BME280;61999;51.514;14.614;2023-05-08T05:43:13;101132.22;;;0.59;58.07
15880;BME280;61999;51.514;14.614;2023-05-08T05:45:41;101148.25;;;0.78;57.54
15880;BME280;61999;51.514;14.614;2023-05-08T05:48:09;101147.19;;;0.89;57.64
15880;BME280;61999;51.514;14.614;2023-05-08T05:50:39;101147.25;;;0.86;57.11
15880;BME280;61999;51.514;14.614;2023-05-08T05:53:07;101150.56;;;0.92;57.02
15880;BME280;61999;51.514;14.614;2023-05-08T05:55:35;101141.75;;;0.99;56.69
15880;BME280;61999;51.514;14.614;2023-05-08T05:58:03;101138.88;;;1.13;56.75
15880;BME280;61999;51.514;14.614;2023-05-08T06:00:31;101138.97;;;1.07;56.59
15880;BME280;61999;51.514;14.614;2023-05-08T06:02:59;101147.38;;;1.18;56.63
15880;BME280;61999;51.514;14.614;2023-05-08T06:05:28;101134.09;;;1.32;55.70
15880;BME280;61999;51.514;14.614;2023-05-08T06:07:57;101144.13;;;1.47;55.28
15880;BME280;61999;51.514;14.614;2023-05-08T06:10:25;101144.13;;;1.47;55.61
15880;BME280;61999;51.514;14.614;2023-05-08T06:12:54;101143.84;;;1.60;55.55
15880;BME280;61999;51.514;14.614;2023-05-08T06:15:22;101144.69;;;1.60;55.58
15880;BME280;61999;51.514;14.614;2023-05-08T06:17:50;101139.31;;;1.68;55.52
15880;BME280;61999;51.514;14.614;2023-05-08T06:20:19;101138.63;;;1.60;55.81
15880;BME280;61999;51.514;14.614;2023-05-08T06:22:48;101143.69;;;1.66;55.28
15880;BME280;61999;51.514;14.614;2023-05-08T06:25:17;101138.16;;;1.78;54.52
15880;BME280;61999;51.514;14.614;2023-05-08T06:27:45;101151.31;;;1.73;53.31
15880;BME280;61999;51.514;14.614;2023-05-08T06:30:13;101144.28;;;1.76;53.38
15880;BME280;61999;51.514;14.614;2023-05-08T06:32:41;101152.00;;;1.80;53.21
15880;BME280;61999;51.514;14.614;2023-05-08T06:35:10;101134.63;;;1.82;53.11
15880;BME280;61999;51.514;14.614;2023-05-08T06:37:38;101145.75;;;1.87;52.44
15880;BME280;61999;51.514;14.614;2023-05-08T06:40:09;101151.00;;;1.84;52.67
15880;BME280;61999;51.514;14.614;2023-05-08T06:42:40;101141.38;;;1.89;52.47
15880;BME280;61999;51.514;14.614;2023-05-08T06:45:08;101143.88;;;1.94;53.22
15880;BME280;61999;51.514;14.614;2023-05-08T06:47:36;101135.56;;;2.14;52.58
15880;BME280;61999;51.514;14.614;2023-05-08T06:50:06;101139.13;;;2.10;51.36
15880;BME280;61999;51.514;14.614;2023-05-08T06:52:34;101141.19;;;2.30;52.01
15880;BME280;61999;51.514;14.614;2023-05-08T06:55:02;101145.97;;;2.14;51.37
15880;BME280;61999;51.514;14.614;2023-05-08T06:57:30;101138.16;;;2.14;50.74
15880;BME280;61999;51.514;14.614;2023-05-08T06:59:59;101138.66;;;2.28;51.06
15880;BME280;61999;51.514;14.614;2023-05-08T07:02:27;101144.97;;;2.51;51.91
15880;BME280;61999;51.514;14.614;2023-05-08T07:04:55;101137.06;;;2.54;51.13
15880;BME280;61999;51.514;14.614;2023-05-08T07:07:23;101143.84;;;2.59;51.86
15880;BME280;61999;51.514;14.614;2023-05-08T07:09:51;101141.63;;;2.77;51.71
15880;BME280;61999;51.514;14.614;2023-05-08T07:12:19;101149.19;;;2.84;50.43
15880;BME280;61999;51.514;14.614;2023-05-08T07:14:47;101158.03;;;2.79;49.84
15880;BME280;61999;51.514;14.614;2023-05-08T07:17:17;101152.59;;;2.87;49.64
15880;BME280;61999;51.514;14.614;2023-05-08T07:19:49;101154.25;;;2.91;49.95
15880;BME280;61999;51.514;14.614;2023-05-08T07:22:17;101154.16;;;2.94;48.88
15880;BME280;61999;51.514;14.614;2023-05-08T07:24:46;101136.16;;;3.14;49.06
15880;BME280;61999;51.514;14.614;2023-05-08T07:27:14;101138.78;;;3.13;48.78
15880;BME280;61999;51.514;14.614;2023-05-08T07:29:42;101144.22;;;3.35;47.67
15880;BME280;61999;51.514;14.614;2023-05-08T07:32:10;101153.38;;;3.48;46.75
15880;BME280;61999;51.514;14.614;2023-05-08T07:34:39;101138.41;;;3.53;47.55
15880;BME280;61999;51.514;14.614;2023-05-08T07:37:07;101147.56;;;3.66;47.47
15880;BME280;61999;51.514;14.614;2023-05-08T07:39:35;101140.41;;;3.98;47.91
15880;BME280;61999;51.514;14.614;2023-05-08T07:42:03;101147.13;;;4.05;46.63
15880;BME280;61999;51.514;14.614;2023-05-08T07:44:31;101154.69;;;3.88;45.95
15880;BME280;61999;51.514;14.614;2023-05-08T07:47:03;101128.50;;;3.91;45.09
15880;BME280;61999;51.514;14.614;2023-05-08T07:49:31;101135.09;;;4.01;45.50
15880;BME280;61999;51.514;14.614;2023-05-08T07:52:00;101156.72;;;4.30;44.13
15880;BME280;61999;51.514;14.614;2023-05-08T07:54:28;101150.84;;;4.48;43.39
15880;BME280;61999;51.514;14.614;2023-05-08T07:56:56;101150.31;;;4.63;43.19
15880;BME280;61999;51.514;14.614;2023-05-08T07:59:24;101159.94;;;4.85;43.56
15880;BME280;61999;51.514;14.614;2023-05-08T08:01:52;101165.69;;;4.95;43.20
15880;BME280;61999;51.514;14.614;2023-05-08T08:04:20;101152.38;;;5.01;42.11
15880;BME280;61999;51.514;14.614;2023-05-08T08:06:48;101159.25;;;5.03;41.73
15880;BME280;61999;51.514;14.614;2023-05-08T08:09:17;101158.09;;;5.10;41.15
15880;BME280;61999;51.514;14.614;2023-05-08T08:11:45;101159.72;;;5.15;40.85
15880;BME280;61999;51.514;14.614;2023-05-08T08:14:13;101147.75;;;5.31;40.49
15880;BME280;61999;51.514;14.614;2023-05-08T08:16:41;101150.41;;;5.51;39.82
15880;BME280;61999;51.514;14.614;2023-05-08T08:19:09;101151.69;;;5.85;39.81
15880;BME280;61999;51.514;14.614;2023-05-08T08:21:41;101152.03;;;5.76;37.52
15880;BME280;61999;51.514;14.614;2023-05-08T08:24:09;101156.31;;;5.99;37.82
15880;BME280;61999;51.514;14.614;2023-05-08T08:26:38;101153.63;;;6.21;37.05
15880;BME280;61999;51.514;14.614;2023-05-08T08:29:06;101146.47;;;6.25;37.86
15880;BME280;61999;51.514;14.614;2023-05-08T08:31:34;101142.22;;;6.22;37.33
15880;BME280;61999;51.514;14.614;2023-05-08T08:34:02;101143.44;;;6.54;37.14
15880;BME280;61999;51.514;14.614;2023-05-08T08:36:30;101151.38;;;6.72;36.09
15880;BME280;61999;51.514;14.614;2023-05-08T08:38:59;101150.28;;;6.77;35.28
15880;BME280;61999;51.514;14.614;2023-05-08T08:41:27;101140.50;;;6.81;35.54
15880;BME280;61999;51.514;14.614;2023-05-08T08:43:57;101140.91;;;6.72;34.55
15880;BME280;61999;51.514;14.614;2023-05-08T08:46:26;101150.28;;;7.15;35.04
15880;BME280;61999;51.514;14.614;2023-05-08T08:48:55;101144.09;;;7.16;34.37
15880;BME280;61999;51.514;14.614;2023-05-08T08:51:27;101130.41;;;7.28;33.41
15880;BME280;61999;51.514;14.614;2023-05-08T08:54:04;101149.41;;;7.51;33.83
15880;BME280;61999;51.514;14.614;2023-05-08T08:56:36;101143.91;;;7.74;33.45
15880;BME280;61999;51.514;14.614;2023-05-08T08:59:10;101149.72;;;7.81;31.47
15880;BME280;61999;51.514;14.614;2023-05-08T09:01:40;101141.75;;;7.83;33.05
15880;BME280;61999;51.514;14.614;2023-05-08T09:04:11;101140.34;;;7.75;32.71
15880;BME280;61999;51.514;14.614;2023-05-08T09:06:39;101127.91;;;8.14;32.86
15880;BME280;61999;51.514;14.614;2023-05-08T09:09:07;101147.66;;;8.38;32.29
15880;BME280;61999;51.514;14.614;2023-05-08T09:11:37;101130.66;;;8.61;32.94
15880;BME280;61999;51.514;14.614;2023-05-08T09:14:07;101130.81;;;8.92;33.50
15880;BME280;61999;51.514;14.614;2023-05-08T09:16:35;101128.28;;;8.73;33.02
15880;BME280;61999;51.514;14.614;2023-05-08T09:19:03;101127.13;;;8.94;31.64
15880;BME280;61999;51.514;14.614;2023-05-08T09:21:32;101134.31;;;9.38;30.83
15880;BME280;61999;51.514;14.614;2023-05-08T09:24:02;101135.59;;;9.31;31.70
15880;BME280;61999;51.514;14.614;2023-05-08T09:26:33;101131.69;;;9.38;30.90
15880;BME280;61999;51.514;14.614;2023-05-08T09:29:12;101149.69;;;9.92;30.83
15880;BME280;61999;51.514;14.614;2023-05-08T09:31:43;101126.72;;;10.08;28.48
15880;BME280;61999;51.514;14.614;2023-05-08T09:34:23;101128.47;;;10.52;27.53
15880;BME280;61999;51.514;14.614;2023-05-08T09:36:53;101131.28;;;10.78;27.17
15880;BME280;61999;51.514;14.614;2023-05-08T09:39:22;101120.25;;;10.71;28.13
15880;BME280;61999;51.514;14.614;2023-05-08T09:41:58;101127.38;;;10.98;27.84
15880;BME280;61999;51.514;14.614;2023-05-08T09:44:42;101133.09;;;11.04;26.59
15880;BME280;61999;51.514;14.614;2023-05-08T09:47:11;101141.41;;;11.25;25.46
15880;BME280;61999;51.514;14.614;2023-05-08T09:49:55;101135.72;;;11.46;25.52
15880;BME280;61999;51.514;14.614;2023-05-08T09:52:23;101125.28;;;11.44;26.10
15880;BME280;61999;51.514;14.614;2023-05-08T09:54:59;101120.69;;;11.73;25.18
15880;BME280;61999;51.514;14.614;2023-05-08T09:57:30;101130.63;;;11.82;25.13
15880;BME280;61999;51.514;14.614;2023-05-08T10:00:05;101126.25;;;12.21;25.84
15880;BME280;61999;51.514;14.614;2023-05-08T10:02:37;101111.38;;;12.57;24.98
15880;BME280;61999;51.514;14.614;2023-05-08T10:05:23;101100.34;;;12.76;24.73
15880;BME280;61999;51.514;14.614;2023-05-08T10:07:52;101116.75;;;12.68;24.80
15880;BME280;61999;51.514;14.614;2023-05-08T10:10:24;101107.31;;;12.77;23.84
15880;BME280;61999;51.514;14.614;2023-05-08T10:12:54;101087.69;;;12.43;25.50
15880;BME280;61999;51.514;14.614;2023-05-08T10:15:28;101092.44;;;13.00;25.16
15880;BME280;61999;51.514;14.614;2023-05-08T10:18:03;101103.28;;;13.56;24.40
15880;BME280;61999;51.514;14.614;2023-05-08T10:20:34;101095.28;;;13.45;27.20
15880;BME280;61999;51.514;14.614;2023-05-08T10:23:07;101088.09;;;13.94;28.06
15880;BME280;61999;51.514;14.614;2023-05-08T10:25:44;101083.19;;;14.45;26.53
15880;BME280;61999;51.514;14.614;2023-05-08T10:28:20;101111.34;;;14.91;25.05
15880;BME280;61999;51.514;14.614;2023-05-08T10:30:58;101084.72;;;15.46;25.55
15880;BME280;61999;51.514;14.614;2023-05-08T10:33:30;101088.84;;;15.81;22.56
15880;BME280;61999;51.514;14.614;2023-05-08T10:35:59;101096.28;;;15.56;24.69
15880;BME280;61999;51.514;14.614;2023-05-08T10:38:29;101088.63;;;16.36;22.86
15880;BME280;61999;51.514;14.614;2023-05-08T10:41:00;101070.03;;;15.84;21.50
15880;BME280;61999;51.514;14.614;2023-05-08T10:43:29;101069.25;;;16.34;20.51
15880;BME280;61999;51.514;14.614;2023-05-08T10:46:08;101073.56;;;16.56;20.76
15880;BME280;61999;51.514;14.614;2023-05-08T10:48:47;101073.81;;;16.52;21.22
15880;BME280;61999;51.514;14.614;2023-05-08T10:51:26;101067.47;;;16.94;21.51
15880;BME280;61999;51.514;14.614;2023-05-08T10:54:07;101061.56;;;17.00;21.55
15880;BME280;61999;51.514;14.614;2023-05-08T10:56:38;101073.63;;;17.62;19.59
15880;BME280;61999;51.514;14.614;2023-05-08T10:59:17;101057.81;;;17.98;19.55
15880;BME280;61999;51.514;14.614;2023-05-08T11:01:48;101052.84;;;18.50;19.50
15880;BME280;61999;51.514;14.614;2023-05-08T11:04:20;101053.25;;;17.81;20.06
15880;BME280;61999;51.514;14.614;2023-05-08T11:06:49;101064.66;;;18.38;20.33
15880;BME280;61999;51.514;14.614;2023-05-08T11:09:21;101048.69;;;18.28;20.86
15880;BME280;61999;51.514;14.614;2023-05-08T11:12:03;101069.81;;;18.95;21.08
15880;BME280;61999;51.514;14.614;2023-05-08T11:14:34;101051.34;;;19.19;22.05
15880;BME280;61999;51.514;14.614;2023-05-08T11:17:05;101044.41;;;19.79;21.40
15880;BME280;61999;51.514;14.614;2023-05-08T11:19:36;101048.56;;;20.34;20.14
15880;BME280;61999;51.514;14.614;2023-05-08T11:22:22;101032.13;;;20.95;17.77
15880;BME280;61999;51.514;14.614;2023-05-08T11:24:57;101041.63;;;20.65;18.46
15880;BME280;61999;51.514;14.614;2023-05-08T11:27:40;101038.53;;;21.35;17.28
15880;BME280;61999;51.514;14.614;2023-05-08T11:30:38;101054.41;;;20.80;16.44
15880;BME280;61999;51.514;14.614;2023-05-08T11:33:14;101043.19;;;21.33;17.43
15880;BME280;61999;51.514;14.614;2023-05-08T11:35:53;101055.75;;;21.66;17.44
15880;BME280;61999;51.514;14.614;2023-05-08T11:38:25;101043.59;;;22.02;16.34
15880;BME280;61999;51.514;14.614;2023-05-08T11:41:02;101046.41;;;22.57;16.31
15880;BME280;61999;51.514;14.614;2023-05-08T11:44:15;101044.56;;;22.49;17.54
15880;BME280;61999;51.514;14.614;2023-05-08T11:46:49;101036.03;;;22.45;14.11
15880;BME280;61999;51.514;14.614;2023-05-08T11:49:25;101037.34;;;22.49;14.43
15880;BME280;61999;51.514;14.614;2023-05-08T11:51:58;101045.28;;;22.74;15.00
15880;BME280;61999;51.514;14.614;2023-05-08T11:54:29;101026.47;;;23.50;15.04
15880;BME280;61999;51.514;14.614;2023-05-08T11:56:58;101024.72;;;24.16;14.24
15880;BME280;61999;51.514;14.614;2023-05-08T11:59:27;101031.25;;;24.07;13.10
15880;BME280;61999;51.514;14.614;2023-05-08T12:01:56;101015.63;;;23.87;14.96
15880;BME280;61999;51.514;14.614;2023-05-08T12:04:42;101007.44;;;23.96;14.36
15880;BME280;61999;51.514;14.614;2023-05-08T12:07:11;101024.47;;;22.91;14.42
15880;BME280;61999;51.514;14.614;2023-05-08T12:09:39;101019.66;;;23.24;13.35
15880;BME280;61999;51.514;14.614;2023-05-08T12:12:08;101025.03;;;23.77;13.45
15880;BME280;61999;51.514;14.614;2023-05-08T12:14:36;101026.31;;;24.11;12.34
15880;BME280;61999;51.514;14.614;2023-05-08T12:17:05;101034.22;;;24.12;12.78
15880;BME280;61999;51.514;14.614;2023-05-08T12:19:33;101018.56;;;24.22;11.98
15880;BME280;61999;51.514;14.614;2023-05-08T12:22:01;101007.28;;;24.12;13.02
15880;BME280;61999;51.514;14.614;2023-05-08T12:24:29;101008.63;;;24.38;12.01
15880;BME280;61999;51.514;14.614;2023-05-08T12:26:58;101007.16;;;24.57;13.42
15880;BME280;61999;51.514;14.614;2023-05-08T12:29:26;101013.25;;;25.08;12.07
15880;BME280;61999;51.514;14.614;2023-05-08T12:31:54;101014.31;;;24.86;12.28
15880;BME280;61999;51.514;14.614;2023-05-08T12:34:24;101028.94;;;24.98;12.70
15880;BME280;61999;51.514;14.614;2023-05-08T12:37:01;101010.91;;;25.20;13.18
15880;BME280;61999;51.514;14.614;2023-05-08T12:39:34;101011.72;;;25.49;12.91
15880;BME280;61999;51.514;14.614;2023-05-08T12:42:03;101008.22;;;26.44;11.12
15880;BME280;61999;51.514;14.614;2023-05-08T12:44:32;100999.47;;;25.25;12.25
15880;BME280;61999;51.514;14.614;2023-05-08T12:47:00;101010.13;;;24.83;12.51
15880;BME280;61999;51.514;14.614;2023-05-08T12:49:30;101012.19;;;25.31;10.50
15880;BME280;61999;51.514;14.614;2023-05-08T12:52:03;101011.66;;;25.14;11.23
15880;BME280;61999;51.514;14.614;2023-05-08T12:54:34;101000.81;;;24.64;11.70
15880;BME280;61999;51.514;14.614;2023-05-08T12:57:09;101008.63;;;25.02;10.88
15880;BME280;61999;51.514;14.614;2023-05-08T12:59:38;101000.13;;;25.27;10.96
15880;BME280;61999;51.514;14.614;2023-05-08T13:02:13;100985.13;;;25.17;10.87
15880;BME280;61999;51.514;14.614;2023-05-08T13:04:44;100984.41;;;25.37;10.95
15880;BME280;61999;51.514;14.614;2023-05-08T13:07:12;100975.72;;;25.41;10.92
15880;BME280;61999;51.514;14.614;2023-05-08T13:09:55;100972.69;;;25.99;12.03
15880;BME280;61999;51.514;14.614;2023-05-08T13:12:24;100969.25;;;26.19;10.34